createdAt,value
2018-06-18T00:01:29.840Z,100871.13
2018-06-18T00:03:57.879Z,100860.98
2018-06-18T00:06:26.031Z,100855.19
2018-06-18T00:08:54.107Z,100858.19
2018-06-18T00:11:22.182Z,100859.76
2018-06-18T00:13:50.319Z,100858.55
2018-06-18T00:16:18.396Z,100852.39
2018-06-18T00:18:46.452Z,100849.38
2018-06-18T00:21:14.587Z,100845.20
2018-06-18T00:23:42.696Z,100847.19
2018-06-18T00:26:10.785Z,100849.75
2018-06-18T00:28:38.853Z,100856.93
2018-06-18T00:31:07.227Z,100867.66
2018-06-18T00:33:35.267Z,100871.03
2018-06-18T00:36:03.315Z,100861.45
2018-06-18T00:38:31.386Z,100861.50
2018-06-18T00:40:59.430Z,100850.15
2018-06-18T00:43:27.831Z,100851.36
2018-06-18T00:45:55.896Z,100857.11
2018-06-18T00:48:23.964Z,100857.70
2018-06-18T00:50:52.032Z,100867.03
2018-06-18T00:53:20.128Z,100866.62
2018-06-18T00:55:59.779Z,100863.22
2018-06-18T00:58:27.856Z,100864.61
2018-06-18T01:00:55.942Z,100858.45
2018-06-18T01:03:23.983Z,100857.65
2018-06-18T01:05:52.028Z,100868.20
2018-06-18T01:08:20.104Z,100866.81
2018-06-18T01:10:48.174Z,100855.67
2018-06-18T01:13:16.223Z,100852.70
2018-06-18T01:15:44.262Z,100865.05
2018-06-18T01:18:12.312Z,100860.06
2018-06-18T01:20:40.391Z,100860.26
2018-06-18T01:23:20.915Z,100851.91
2018-06-18T01:25:49.061Z,100842.16
2018-06-18T01:28:17.243Z,100845.17
2018-06-18T01:30:45.302Z,100841.75
2018-06-18T01:33:13.348Z,100849.92
2018-06-18T01:35:41.425Z,100836.13
2018-06-18T01:38:09.487Z,100834.11
2018-06-18T01:40:37.595Z,100838.64
2018-06-18T01:43:05.667Z,100841.61
2018-06-18T01:45:33.723Z,100841.78
2018-06-18T01:48:01.773Z,100841.19
2018-06-18T01:50:29.976Z,100837.43
2018-06-18T01:52:58.061Z,100839.41
2018-06-18T01:55:26.162Z,100839.99
2018-06-18T01:57:54.391Z,100842.78
2018-06-18T02:00:22.437Z,100846.14
2018-06-18T02:02:50.507Z,100852.52
2018-06-18T02:05:18.603Z,100842.37
2018-06-18T02:07:46.667Z,100848.73
2018-06-18T02:10:14.746Z,100841.97
2018-06-18T02:12:42.836Z,100839.80
2018-06-18T02:15:10.913Z,100833.02
2018-06-18T02:17:39.003Z,100834.77
2018-06-18T02:20:07.088Z,100838.95
2018-06-18T02:22:35.161Z,100840.13
2018-06-18T02:25:03.258Z,100839.71
2018-06-18T02:27:36.685Z,100834.73
2018-06-18T02:30:10.493Z,100829.16
2018-06-18T02:32:43.903Z,100827.58
2018-06-18T02:35:17.261Z,100824.00
2018-06-18T02:37:50.660Z,100832.53
2018-06-18T02:40:24.137Z,100824.19
2018-06-18T02:42:52.208Z,100817.84
2018-06-18T02:45:20.303Z,100813.05
2018-06-18T02:47:48.387Z,100819.23
2018-06-18T02:50:16.555Z,100828.58
2018-06-18T02:52:44.649Z,100829.97
2018-06-18T02:55:12.736Z,100830.78
2018-06-18T02:57:40.874Z,100834.95
2018-06-18T03:00:09.024Z,100842.71
2018-06-18T03:02:37.098Z,100850.25
2018-06-18T03:05:05.241Z,100839.93
2018-06-18T03:07:33.536Z,100839.34
2018-06-18T03:10:01.659Z,100833.56
2018-06-18T03:12:29.724Z,100835.95
2018-06-18T03:14:57.801Z,100828.80
2018-06-18T03:17:25.936Z,100829.75
2018-06-18T03:19:59.550Z,100834.69
2018-06-18T03:23:31.183Z,100832.88
2018-06-18T03:26:04.749Z,100842.20
2018-06-18T03:28:38.225Z,100834.27
2018-06-18T03:31:06.428Z,100827.91
2018-06-18T03:33:34.504Z,100826.91
2018-06-18T03:36:02.564Z,100820.75
2018-06-18T03:38:30.638Z,100829.34
2018-06-18T03:40:58.711Z,100824.19
2018-06-18T03:43:26.928Z,100813.27
2018-06-18T03:45:55.023Z,100821.67
2018-06-18T03:48:23.227Z,100821.08
2018-06-18T03:50:51.349Z,100820.10
2018-06-18T03:53:19.446Z,100818.93
2018-06-18T03:55:52.980Z,100817.73
2018-06-18T03:58:21.069Z,100817.19
2018-06-18T04:02:02.814Z,100824.73
2018-06-18T04:04:40.386Z,100825.95
2018-06-18T04:07:13.712Z,100828.14
2018-06-18T04:09:47.168Z,100818.98
2018-06-18T04:12:15.278Z,100825.01
2018-06-18T04:14:43.391Z,100821.64
2018-06-18T04:17:11.464Z,100818.09
2018-06-18T04:19:39.652Z,100808.76
2018-06-18T04:22:07.733Z,100819.56
2018-06-18T04:24:36.111Z,100823.52
2018-06-18T04:27:04.279Z,100820.23
2018-06-18T04:29:32.385Z,100819.47
2018-06-18T04:32:00.524Z,100815.66
2018-06-18T04:34:31.359Z,100819.70
2018-06-18T04:36:59.636Z,100819.15
2018-06-18T04:39:28.117Z,100826.73
2018-06-18T04:42:01.964Z,100823.81
2018-06-18T04:44:35.403Z,100823.45
2018-06-18T04:47:08.909Z,100817.58
2018-06-18T04:49:42.471Z,100813.28
2018-06-18T04:52:10.523Z,100813.91
2018-06-18T04:54:38.840Z,100814.94
2018-06-18T04:57:07.087Z,100814.56
2018-06-18T04:59:36.753Z,100817.41
2018-06-18T05:02:05.475Z,100824.19
2018-06-18T05:04:33.743Z,100825.19
2018-06-18T05:07:01.809Z,100824.04
2018-06-18T05:10:09.051Z,100822.08
2018-06-18T05:12:37.139Z,100823.31
2018-06-18T05:15:05.221Z,100823.37
2018-06-18T05:17:33.312Z,100836.33
2018-06-18T05:20:01.400Z,100839.56
2018-06-18T05:22:29.762Z,100829.64
2018-06-18T05:24:57.872Z,100838.24
2018-06-18T05:27:31.020Z,100837.06
2018-06-18T05:30:02.005Z,100844.42
2018-06-18T05:32:30.053Z,100842.78
2018-06-18T05:34:58.206Z,100841.77
2018-06-18T05:37:34.899Z,100848.09
2018-06-18T05:40:02.950Z,100850.70
2018-06-18T05:42:31.099Z,100854.70
2018-06-18T05:44:59.833Z,100860.30
2018-06-18T05:47:27.919Z,100854.56
2018-06-18T05:49:55.991Z,100852.81
2018-06-18T05:52:24.295Z,100857.94
2018-06-18T05:54:52.371Z,100854.75
2018-06-18T05:57:20.480Z,100860.73
2018-06-18T05:59:48.551Z,100854.19
2018-06-18T06:02:17.348Z,100847.70
2018-06-18T06:04:45.411Z,100849.41
2018-06-18T06:07:13.488Z,100846.27
2018-06-18T06:09:41.649Z,100845.91
2018-06-18T06:12:10.143Z,100844.14
2018-06-18T06:14:38.206Z,100843.17
2018-06-18T06:17:06.282Z,100831.64
2018-06-18T06:19:34.664Z,100829.05
2018-06-18T06:22:02.799Z,100833.23
2018-06-18T06:24:31.147Z,100826.40
2018-06-18T06:26:59.372Z,100834.98
2018-06-18T06:29:33.779Z,100836.53
2018-06-18T06:32:01.879Z,100832.70
2018-06-18T06:34:30.199Z,100837.50
2018-06-18T06:36:58.307Z,100842.88
2018-06-18T06:39:26.396Z,100847.03
2018-06-18T06:42:00.588Z,100850.91
2018-06-18T06:44:28.717Z,100855.92
2018-06-18T06:46:57.006Z,100847.37
2018-06-18T06:49:25.105Z,100856.58
2018-06-18T06:51:53.179Z,100851.58
2018-06-18T06:54:21.269Z,100854.16
2018-06-18T06:56:49.335Z,100855.17
2018-06-18T06:59:17.395Z,100854.78
2018-06-18T07:01:45.553Z,100857.20
2018-06-18T07:04:13.636Z,100859.40
2018-06-18T07:06:41.729Z,100865.20
2018-06-18T07:09:11.137Z,100857.61
2018-06-18T07:11:39.663Z,100855.22
2018-06-18T07:14:07.871Z,100858.20
2018-06-18T07:16:36.124Z,100861.39
2018-06-18T07:19:04.454Z,100868.36
2018-06-18T07:21:32.755Z,100861.57
2018-06-18T07:24:00.865Z,100860.77
2018-06-18T07:26:28.945Z,100862.33
2018-06-18T07:28:57.027Z,100866.14
2018-06-18T07:31:25.100Z,100869.28
2018-06-18T07:33:53.398Z,100870.08
2018-06-18T07:36:22.360Z,100873.46
2018-06-18T07:38:50.580Z,100875.62
2018-06-18T07:41:18.648Z,100873.41
2018-06-18T07:43:46.745Z,100871.24
2018-06-18T07:46:15.030Z,100876.64
2018-06-18T07:48:43.085Z,100880.25
2018-06-18T07:51:11.155Z,100881.87
2018-06-18T07:53:39.423Z,100878.09
2018-06-18T07:56:07.536Z,100878.91
2018-06-18T07:58:35.616Z,100882.09
2018-06-18T08:01:04.838Z,100882.51
2018-06-18T08:03:32.964Z,100875.31
2018-06-18T08:06:01.051Z,100871.32
2018-06-18T08:08:29.723Z,100871.91
2018-06-18T08:10:58.408Z,100873.09
2018-06-18T08:13:26.610Z,100866.89
2018-06-18T08:15:54.748Z,100878.48
2018-06-18T08:18:22.821Z,100879.50
2018-06-18T08:20:50.903Z,100881.91
2018-06-18T08:23:19.002Z,100871.31
2018-06-18T08:25:47.100Z,100877.67
2018-06-18T08:28:15.320Z,100878.48
2018-06-18T08:30:43.411Z,100883.86
2018-06-18T08:33:11.492Z,100882.68
2018-06-18T08:35:39.580Z,100883.91
2018-06-18T08:38:07.675Z,100885.09
2018-06-18T08:40:35.921Z,100876.09
2018-06-18T08:43:04.001Z,100875.47
2018-06-18T08:45:32.092Z,100876.05
2018-06-18T08:48:00.164Z,100871.48
2018-06-18T08:50:33.658Z,100868.07
2018-06-18T08:53:07.168Z,100867.42
2018-06-18T08:55:40.700Z,100859.76
2018-06-18T08:58:14.022Z,100857.66
2018-06-18T09:00:47.458Z,100850.09
2018-06-18T09:03:20.979Z,100844.05
2018-06-18T09:05:59.960Z,100847.66
2018-06-18T09:08:33.472Z,100843.84
2018-06-18T09:11:01.707Z,100850.30
2018-06-18T09:13:29.819Z,100845.66
2018-06-18T09:15:57.971Z,100839.25
2018-06-18T09:18:26.052Z,100832.72
2018-06-18T09:20:54.255Z,100837.16
2018-06-18T09:23:22.340Z,100832.81
2018-06-18T09:25:55.678Z,100839.00
2018-06-18T09:28:23.761Z,100835.28
2018-06-18T09:30:51.872Z,100824.86
2018-06-18T09:33:20.019Z,100837.22
2018-06-18T09:35:48.185Z,100828.07
2018-06-18T09:38:16.258Z,100831.50
2018-06-18T09:40:44.327Z,100838.57
2018-06-18T09:43:12.392Z,100834.21
2018-06-18T09:48:27.488Z,100837.47
2018-06-18T09:51:01.594Z,100843.05
2018-06-18T09:53:35.103Z,100843.53
2018-06-18T09:56:08.660Z,100846.34
2018-06-18T09:58:42.256Z,100848.65
2018-06-18T10:01:42.862Z,100857.20
2018-06-18T10:04:11.049Z,100852.43
2018-06-18T10:06:39.785Z,100851.66
2018-06-18T10:09:10.700Z,100845.47
2018-06-18T10:11:38.834Z,100846.83
2018-06-18T10:14:09.811Z,100847.00
2018-06-18T10:16:37.964Z,100846.70
2018-06-18T10:19:06.050Z,100855.58
2018-06-18T10:21:34.296Z,100850.12
2018-06-18T10:24:02.565Z,100849.95
2018-06-18T10:26:31.373Z,100843.76
2018-06-18T10:28:59.447Z,100842.91
2018-06-18T10:31:27.684Z,100844.78
2018-06-18T10:34:01.239Z,100839.37
2018-06-18T10:36:34.739Z,100838.84
2018-06-18T10:39:08.183Z,100833.04
2018-06-18T10:41:41.731Z,100823.38
2018-06-18T10:44:09.780Z,100829.48
2018-06-18T10:46:37.928Z,100831.88
2018-06-18T10:49:06.057Z,100833.17
2018-06-18T10:51:34.097Z,100838.69
2018-06-18T10:54:02.227Z,100831.37
2018-06-18T10:56:46.435Z,100840.16
2018-06-18T10:59:14.512Z,100837.66
2018-06-18T11:01:42.703Z,100834.39
2018-06-18T11:04:16.237Z,100840.03
2018-06-18T11:06:44.280Z,100838.21
2018-06-18T11:09:12.348Z,100837.47
2018-06-18T11:11:40.484Z,100838.70
2018-06-18T11:14:08.733Z,100841.55
2018-06-18T11:16:36.960Z,100841.44
2018-06-18T11:19:10.621Z,100847.23
2018-06-18T11:21:44.106Z,100836.20
2018-06-18T11:24:17.595Z,100842.53
2018-06-18T11:26:51.215Z,100839.95
2018-06-18T11:29:19.456Z,100843.72
2018-06-18T11:31:47.495Z,100842.70
2018-06-18T11:34:15.543Z,100837.33
2018-06-18T11:36:43.707Z,100842.64
2018-06-18T11:39:11.716Z,100837.83
2018-06-18T11:41:40.050Z,100834.48
2018-06-18T11:44:08.156Z,100832.47
2018-06-18T11:46:36.407Z,100832.36
2018-06-18T11:49:04.612Z,100834.70
2018-06-18T11:51:32.776Z,100835.39
2018-06-18T11:54:00.908Z,100841.03
2018-06-18T11:56:29.108Z,100822.51
2018-06-18T11:59:02.453Z,100841.83
2018-06-18T12:01:36.435Z,100840.75
2018-06-18T12:04:10.077Z,100837.45
2018-06-18T12:06:43.650Z,100831.75
2018-06-18T12:09:16.987Z,100844.11
2018-06-18T12:11:45.952Z,100835.87
2018-06-18T12:14:14.352Z,100832.41
2018-06-18T12:16:42.505Z,100832.52
2018-06-18T12:19:10.551Z,100828.38
2018-06-18T12:21:38.680Z,100826.81
2018-06-18T12:24:07.718Z,100828.23
2018-06-18T12:26:35.755Z,100832.50
2018-06-18T12:29:03.952Z,100825.80
2018-06-18T12:31:32.023Z,100818.92
2018-06-18T12:34:00.166Z,100832.27
2018-06-18T12:36:28.607Z,100829.59
2018-06-18T12:38:56.980Z,100833.75
2018-06-18T12:41:25.056Z,100830.37
2018-06-18T12:43:55.123Z,100833.84
2018-06-18T12:46:29.040Z,100831.61
2018-06-18T12:49:02.618Z,100820.46
2018-06-18T12:51:37.206Z,100821.47
2018-06-18T12:54:10.993Z,100823.39
2018-06-18T12:56:44.619Z,100813.21
2018-06-18T12:59:12.942Z,100822.12
2018-06-18T13:01:46.220Z,100824.33
2018-06-18T13:04:14.256Z,100827.98
2018-06-18T13:06:42.310Z,100822.89
2018-06-18T13:09:10.349Z,100823.50
2018-06-18T13:11:38.567Z,100821.38
2018-06-18T13:14:06.617Z,100835.61
2018-06-18T13:16:34.807Z,100828.12
2018-06-18T13:19:02.946Z,100830.53
2018-06-18T13:21:31.006Z,100824.97
2018-06-18T13:23:59.327Z,100832.53
2018-06-18T13:26:27.352Z,100833.22
2018-06-18T13:28:55.379Z,100833.70
2018-06-18T13:31:23.414Z,100841.97
2018-06-18T13:33:51.429Z,100838.80
2018-06-18T13:36:19.492Z,100832.95
2018-06-18T13:38:52.963Z,100835.34
2018-06-18T13:41:26.455Z,100835.67
2018-06-18T13:44:00.056Z,100833.77
2018-06-18T13:46:33.488Z,100837.77
2018-06-18T13:49:01.700Z,100843.47
2018-06-18T13:51:29.870Z,100844.88
2018-06-18T13:53:57.899Z,100828.73
2018-06-18T13:56:25.940Z,100833.52
2018-06-18T13:58:54.476Z,100837.78
2018-06-18T14:01:22.524Z,100839.22
2018-06-18T14:03:50.636Z,100836.45
2018-06-18T14:06:18.693Z,100837.00
2018-06-18T14:08:46.720Z,100838.92
2018-06-18T14:11:14.843Z,100836.65
2018-06-18T14:13:42.932Z,100831.80
2018-06-18T14:16:10.933Z,100832.42
2018-06-18T14:18:38.967Z,100831.33
2018-06-18T14:21:06.999Z,100832.19
2018-06-18T14:23:35.044Z,100829.99
2018-06-18T14:26:03.314Z,100845.27
2018-06-18T14:28:31.346Z,100833.24
2018-06-18T14:31:04.921Z,100833.59
2018-06-18T14:33:38.294Z,100841.70
2018-06-18T14:36:11.861Z,100832.42
2018-06-18T14:38:45.248Z,100825.98
2018-06-18T14:41:13.291Z,100830.02
2018-06-18T14:43:41.382Z,100822.43
2018-06-18T14:46:09.581Z,100831.41
2018-06-18T14:48:37.792Z,100831.91
2018-06-18T14:51:06.004Z,100833.82
2018-06-18T14:53:33.998Z,100830.91
2018-06-18T14:56:15.727Z,100837.66
2018-06-18T14:58:48.228Z,100846.89
2018-06-18T15:01:16.301Z,100847.11
2018-06-18T15:03:44.390Z,100842.95
2018-06-18T15:06:12.404Z,100847.00
2018-06-18T15:08:40.540Z,100846.95
2018-06-18T15:11:08.607Z,100844.58
2018-06-18T15:13:36.660Z,100832.27
2018-06-18T15:16:10.060Z,100828.30
2018-06-18T15:18:38.117Z,100831.52
2018-06-18T15:21:06.443Z,100828.16
2018-06-18T15:23:34.415Z,100818.26
2018-06-18T15:26:02.547Z,100822.42
2018-06-18T15:28:30.519Z,100821.22
2018-06-18T15:30:58.551Z,100819.36
2018-06-18T15:33:26.746Z,100815.89
2018-06-18T15:35:54.771Z,100819.50
2018-06-18T15:39:25.720Z,100821.08
2018-06-18T15:41:53.970Z,100836.19
2018-06-18T15:44:22.061Z,100824.07
2018-06-18T15:46:50.047Z,100826.38
2018-06-18T15:49:18.127Z,100824.88
2018-06-18T15:51:46.207Z,100826.38
2018-06-18T15:54:14.354Z,100822.81
2018-06-18T15:56:42.859Z,100821.27
2018-06-18T15:59:11.524Z,100822.72
2018-06-18T16:01:40.798Z,100819.47
2018-06-18T16:04:09.488Z,100811.67
2018-06-18T16:06:37.980Z,100805.59
2018-06-18T16:09:09.207Z,100808.35
2018-06-18T16:11:38.134Z,100808.41
2018-06-18T16:14:06.863Z,100808.06
2018-06-18T16:16:34.950Z,100808.77
2018-06-18T16:19:03.139Z,100810.31
2018-06-18T16:21:31.194Z,100812.68
2018-06-18T16:23:59.223Z,100808.02
2018-06-18T16:26:27.312Z,100808.20
2018-06-18T16:28:55.722Z,100813.44
2018-06-18T16:31:23.851Z,100819.39
2018-06-18T16:33:51.897Z,100808.72
2018-06-18T16:36:20.055Z,100807.03
2018-06-18T16:38:48.106Z,100817.63
2018-06-18T16:41:16.211Z,100816.30
2018-06-18T16:43:44.383Z,100812.02
2018-06-18T16:46:12.675Z,100805.34
2018-06-18T16:48:40.843Z,100805.03
2018-06-18T16:51:09.192Z,100812.45
2018-06-18T16:53:37.441Z,100809.20
2018-06-18T16:56:05.818Z,100807.59
2018-06-18T16:58:33.976Z,100798.80
2018-06-18T17:01:02.817Z,100801.94
2018-06-18T17:03:31.475Z,100806.03
2018-06-18T17:06:00.285Z,100812.53
2018-06-18T17:08:28.370Z,100802.45
2018-06-18T17:10:56.541Z,100797.64
2018-06-18T17:13:24.708Z,100798.56
2018-06-18T17:15:52.929Z,100800.97
2018-06-18T17:18:20.994Z,100807.55
2018-06-18T17:20:49.850Z,100813.41
2018-06-18T17:23:18.224Z,100748.41
2018-06-18T17:25:46.325Z,100807.88
2018-06-18T17:28:14.457Z,100800.77
2018-06-18T17:30:42.716Z,100808.35
2018-06-18T17:33:10.754Z,100813.25
2018-06-18T17:35:38.860Z,100819.27
2018-06-18T17:38:06.910Z,100822.31
2018-06-18T17:40:35.036Z,100814.13
2018-06-18T17:43:03.082Z,100805.50
2018-06-18T17:45:31.156Z,100813.20
2018-06-18T17:47:59.331Z,100812.63
2018-06-18T17:50:27.353Z,100818.69
2018-06-18T17:52:55.409Z,100819.95
2018-06-18T17:55:23.483Z,100828.84
2018-06-18T17:57:51.543Z,100814.31
2018-06-18T18:00:19.600Z,100808.73
2018-06-18T18:02:47.937Z,100826.41
2018-06-18T18:05:16.032Z,100817.50
2018-06-18T18:07:44.081Z,100811.16
2018-06-18T18:10:12.271Z,100813.73
2018-06-18T18:12:40.346Z,100812.33
2018-06-18T18:15:08.407Z,100812.72
2018-06-18T18:17:36.496Z,100809.92
2018-06-18T18:20:04.571Z,100807.91
2018-06-18T18:22:32.609Z,100802.91
2018-06-18T18:25:00.635Z,100805.74
2018-06-18T18:27:28.707Z,100804.16
2018-06-18T18:29:56.918Z,100809.01
2018-06-18T18:32:25.265Z,100810.23
2018-06-18T18:34:53.779Z,100806.23
2018-06-18T18:37:22.623Z,100806.26
2018-06-18T18:39:51.641Z,100813.92
2018-06-18T18:42:20.868Z,100818.33
2018-06-18T18:44:49.856Z,100814.92
2018-06-18T18:47:19.164Z,100811.17
2018-06-18T18:49:47.702Z,100802.16
2018-06-18T18:52:16.256Z,100801.36
2018-06-18T18:55:56.895Z,100799.59
2018-06-18T18:58:47.319Z,100800.66
2018-06-18T19:01:16.567Z,100812.11
2018-06-18T19:03:48.091Z,100815.91
2018-06-18T19:06:17.929Z,100812.50
2018-06-18T19:08:46.159Z,100812.93
2018-06-18T19:11:15.574Z,100813.93
2018-06-18T19:13:45.015Z,100805.74
2018-06-18T19:16:14.263Z,100806.19
2018-06-18T19:18:46.461Z,100808.22
2018-06-18T19:21:14.521Z,100797.45
2018-06-18T19:23:42.591Z,100800.28
2018-06-18T19:26:10.727Z,100806.33
2018-06-18T19:28:38.823Z,100814.16
2018-06-18T19:31:23.677Z,100810.17
2018-06-18T19:33:59.419Z,100809.97
2018-06-18T19:36:28.415Z,100813.59
2018-06-18T19:38:57.174Z,100809.98
2018-06-18T19:41:27.855Z,100812.44
2018-06-18T19:44:00.399Z,100813.64
2018-06-18T19:46:34.727Z,100811.66
2018-06-18T19:49:16.619Z,100811.30
2018-06-18T19:51:47.318Z,100806.31
2018-06-18T19:54:19.918Z,100810.53
2018-06-18T19:56:50.066Z,100806.13
2018-06-18T19:59:19.087Z,100809.55
2018-06-18T20:01:47.694Z,100812.34
2018-06-18T20:04:16.081Z,100813.92
2018-06-18T20:06:44.820Z,100820.33
2018-06-18T20:09:13.805Z,100818.53
2018-06-18T20:11:42.313Z,100817.31
2018-06-18T20:14:10.760Z,100817.73
2018-06-18T20:16:40.184Z,100815.91
2018-06-18T20:19:08.785Z,100808.91
2018-06-18T20:21:37.183Z,100815.69
2018-06-18T20:24:05.846Z,100812.30
2018-06-18T20:26:34.532Z,100818.09
2018-06-18T20:29:04.747Z,100817.30
2018-06-18T20:31:34.883Z,100813.69
2018-06-18T20:34:03.976Z,100825.70
2018-06-18T20:36:35.677Z,100823.32
2018-06-18T20:39:06.848Z,100824.52
2018-06-18T20:41:35.975Z,100824.89
2018-06-18T20:44:10.375Z,100823.70
2018-06-18T20:46:39.688Z,100830.91
2018-06-18T20:49:11.179Z,100826.50
2018-06-18T20:51:40.428Z,100821.70
2018-06-18T20:54:12.449Z,100823.50
2018-06-18T20:56:42.849Z,100827.11
2018-06-18T20:59:12.708Z,100832.73
2018-06-18T21:01:41.726Z,100837.14
2018-06-18T21:04:10.141Z,100846.58
2018-06-18T21:06:38.872Z,100844.20
2018-06-18T21:09:09.769Z,100844.81
2018-06-18T21:11:37.856Z,100845.41
2018-06-18T21:14:06.803Z,100856.62
2018-06-18T21:16:35.022Z,100865.02
2018-06-18T21:19:03.107Z,100863.44
2018-06-18T21:21:31.098Z,100868.03
2018-06-18T21:23:59.185Z,100869.05
2018-06-18T21:26:27.488Z,100873.89
2018-06-18T21:28:55.512Z,100879.50
2018-06-18T21:31:23.648Z,100870.34
2018-06-18T21:33:51.905Z,100874.33
2018-06-18T21:36:21.045Z,100876.36
2018-06-18T21:38:49.126Z,100887.97
2018-06-18T21:41:17.171Z,100883.95
2018-06-18T21:43:45.223Z,100881.56
2018-06-18T21:46:13.595Z,100882.76
2018-06-18T21:48:41.753Z,100884.58
2018-06-18T21:51:09.792Z,100887.77
2018-06-18T21:53:37.863Z,100897.16
2018-06-18T21:56:05.896Z,100903.55
2018-06-18T21:58:33.931Z,100901.14
2018-06-18T22:01:01.972Z,100899.94
2018-06-18T22:03:30.083Z,100906.33
2018-06-18T22:05:58.147Z,100904.54
2018-06-18T22:08:27.743Z,100897.94
2018-06-18T22:10:55.902Z,100898.53
2018-06-18T22:13:23.960Z,100901.95
2018-06-18T22:15:52.012Z,100901.34
2018-06-18T22:18:20.224Z,100902.14
2018-06-18T22:20:48.278Z,100905.14
2018-06-18T22:23:16.324Z,100904.31
2018-06-18T22:25:44.372Z,100900.91
2018-06-18T22:28:19.573Z,100894.33
2018-06-18T22:30:47.636Z,100902.31
2018-06-18T22:33:15.678Z,100908.70
2018-06-18T22:35:43.728Z,100901.25
2018-06-18T22:38:11.856Z,100904.03
2018-06-18T22:40:40.023Z,100908.84
2018-06-18T22:43:08.196Z,100912.61
2018-06-18T22:45:36.344Z,100914.62
2018-06-18T22:48:04.575Z,100918.59
2018-06-18T22:50:32.634Z,100924.18
2018-06-18T22:53:00.735Z,100919.99
2018-06-18T22:55:28.815Z,100918.38
2018-06-18T22:57:56.903Z,100924.39
2018-06-18T23:00:24.956Z,100921.39
2018-06-18T23:02:53.047Z,100917.18
2018-06-18T23:05:21.071Z,100919.95
2018-06-18T23:07:49.147Z,100915.97
2018-06-18T23:10:17.276Z,100906.36
2018-06-18T23:12:45.568Z,100910.16
2018-06-18T23:15:14.332Z,100921.74
2018-06-18T23:17:42.407Z,100921.72
2018-06-18T23:20:10.846Z,100922.08
2018-06-18T23:22:39.592Z,100919.71
2018-06-18T23:25:07.928Z,100918.11
2018-06-18T23:27:36.095Z,100921.70
2018-06-18T23:30:05.318Z,100914.13
2018-06-18T23:32:33.568Z,100913.11
2018-06-18T23:35:01.658Z,100916.90
2018-06-18T23:37:29.951Z,100915.89
2018-06-18T23:39:58.452Z,100916.25
2018-06-18T23:42:26.607Z,100910.06
2018-06-18T23:44:54.643Z,100919.80
2018-06-18T23:47:22.700Z,100914.39
2018-06-18T23:49:51.080Z,100913.38
2018-06-18T23:52:19.709Z,100918.34
2018-06-18T23:54:47.759Z,100917.30
2018-06-18T23:57:15.823Z,100919.45
2018-06-18T23:59:43.952Z,100917.27
